Time;durP1;ratioP1;P1;durP2;ratioP2;P2;SDS_P1;SDS_P2;PMS_P1;PMS_P2;Temp;Humidity;BMP_temperature;BMP_pressure;BME280_temperature;BME280_humidity;BME280_pressure;Samples;Min_cycle;Max_cycle;Signal;HPM_P1;HPM_P2
2023/01/12 00:02:23;;;;;;;4.07;0.90;;;8.90;99.90;;;;;;5042256;28;20483;-46
2023/01/12 00:04:52;;;;;;;2.10;0.97;;;8.90;99.90;;;;;;5041864;28;20471;-46
2023/01/12 00:07:21;;;;;;;2.07;1.97;;;8.90;99.90;;;;;;5049174;28;20543;-45
2023/01/12 00:09:50;;;;;;;2.50;1.10;;;8.80;99.90;;;;;;5043241;28;20565;-45
2023/01/12 00:12:18;;;;;;;4.00;1.27;;;8.90;99.90;;;;;;5050433;28;20474;-47
2023/01/12 00:14:46;;;;;;;2.20;0.90;;;8.90;99.90;;;;;;5047124;28;20499;-46
2023/01/12 00:17:18;;;;;;;2.00;1.13;;;8.90;99.90;;;;;;5042358;28;20488;-46
2023/01/12 00:19:47;;;;;;;1.63;0.90;;;8.90;99.90;;;;;;5048606;28;20490;-46
2023/01/12 00:22:18;;;;;;;1.93;0.67;;;8.90;99.90;;;;;;5031897;28;20536;-46
2023/01/12 00:24:48;;;;;;;3.13;0.80;;;8.90;99.90;;;;;;5040581;28;20451;-46
2023/01/12 00:27:19;;;;;;;2.30;1.17;;;8.90;99.90;;;;;;5048415;28;20459;-45
2023/01/12 00:29:48;;;;;;;2.43;1.37;;;8.90;99.90;;;;;;5042126;28;20461;-45
2023/01/12 00:32:18;;;;;;;5.33;1.23;;;8.90;99.90;;;;;;5042088;28;20467;-48
2023/01/12 00:34:47;;;;;;;1.53;0.70;;;8.90;99.90;;;;;;5043546;28;20509;-46
2023/01/12 00:37:19;;;;;;;1.97;1.10;;;8.90;99.90;;;;;;5050086;28;20575;-46
2023/01/12 00:39:47;;;;;;;1.33;0.87;;;8.90;99.90;;;;;;5029598;28;20468;-46
2023/01/12 00:45:21;;;;;;;1.63;0.80;;;8.90;99.90;;;;;;5041457;28;20631;-46
2023/01/12 00:47:50;;;;;;;3.60;0.83;;;8.80;99.90;;;;;;5042697;28;20932;-46
2023/01/12 00:50:19;;;;;;;3.83;1.40;;;8.80;99.90;;;;;;5045379;28;20807;-46
2023/01/12 00:52:49;;;;;;;4.03;0.83;;;8.80;99.90;;;;;;5028720;28;20472;-46
2023/01/12 00:55:17;;;;;;;7.17;1.27;;;8.90;99.90;;;;;;5052401;28;20509;-46
2023/01/12 00:57:46;;;;;;;3.53;0.83;;;8.90;99.90;;;;;;5046090;28;20507;-47
2023/01/12 01:00:16;;;;;;;5.03;1.33;;;8.90;99.90;;;;;;5046211;28;20824;-46
2023/01/12 01:02:44;;;;;;;2.30;1.30;;;8.90;99.90;;;;;;5049358;28;20443;-45
2023/01/12 01:05:13;;;;;;;3.57;1.20;;;8.80;99.90;;;;;;5050698;28;20438;-46
2023/01/12 01:07:41;;;;;;;2.93;0.73;;;8.90;99.90;;;;;;5047487;28;20447;-45
2023/01/12 01:10:12;;;;;;;1.90;0.90;;;8.90;99.90;;;;;;5048433;28;20534;-46
2023/01/12 01:12:41;;;;;;;1.97;1.00;;;8.80;99.90;;;;;;5053512;28;20454;-46
2023/01/12 01:15:10;;;;;;;2.03;0.80;;;8.80;99.90;;;;;;5048790;28;20490;-47
2023/01/12 01:17:39;;;;;;;4.17;0.97;;;8.90;99.90;;;;;;5057015;28;20442;-46
2023/01/12 01:20:08;;;;;;;5.37;1.20;;;8.80;99.90;;;;;;5039620;28;20464;-45
2023/01/12 01:22:36;;;;;;;3.40;1.33;;;8.80;99.90;;;;;;5038526;28;21014;-46
2023/01/12 01:25:06;;;;;;;4.97;1.40;;;8.80;99.90;;;;;;5036326;28;20448;-46
2023/01/12 01:27:36;;;;;;;2.00;1.10;;;8.90;99.90;;;;;;5053350;28;20451;-47
2023/01/12 01:30:05;;;;;;;2.17;0.90;;;8.80;99.90;;;;;;5049694;28;20865;-45
2023/01/12 01:32:34;;;;;;;1.67;0.90;;;8.80;99.90;;;;;;5049667;28;20616;-47
2023/01/12 01:35:02;;;;;;;2.30;0.87;;;8.90;99.90;;;;;;5035951;28;20452;-47
2023/01/12 01:37:31;;;;;;;1.93;1.10;;;8.80;99.90;;;;;;5051480;28;20455;-46
2023/01/12 01:39:59;;;;;;;2.00;0.70;;;8.80;99.90;;;;;;5047121;28;20467;-46
2023/01/12 01:42:28;;;;;;;1.77;1.00;;;8.80;99.90;;;;;;5031665;28;20467;-47
2023/01/12 01:45:01;;;;;;;1.00;0.83;;;8.80;99.90;;;;;;5048850;28;20445;-46
2023/01/12 01:47:38;;;;;;;2.63;1.13;;;8.80;99.90;;;;;;5047806;28;20472;-46
2023/01/12 01:50:15;;;;;;;3.67;1.23;;;8.80;99.90;;;;;;5046712;28;20972;-46
2023/01/12 01:52:48;;;;;;;3.10;0.97;;;8.80;99.90;;;;;;5041986;28;20440;-46
2023/01/12 01:55:22;;;;;;;1.80;0.93;;;8.80;99.90;;;;;;5050035;28;20466;-48
2023/01/12 01:57:54;;;;;;;1.27;0.70;;;8.80;99.90;;;;;;5047670;28;20942;-45
2023/01/12 02:00:25;;;;;;;2.30;0.70;;;8.80;99.90;;;;;;5035215;28;20487;-46
2023/01/12 02:02:55;;;;;;;3.47;1.80;;;8.80;99.90;;;;;;5051784;28;20800;-46
2023/01/12 02:05:26;;;;;;;2.13;1.00;;;8.80;99.90;;;;;;5031444;28;20447;-46
2023/01/12 02:07:58;;;;;;;2.77;1.03;;;8.80;99.90;;;;;;5047696;28;20515;-46
2023/01/12 02:10:27;;;;;;;1.80;0.70;;;8.80;99.90;;;;;;5047617;28;20499;-46
2023/01/12 02:18:53;;;;;;;2.03;1.20;;;8.80;99.90;;;;;;5048015;28;20467;-45
2023/01/12 02:21:51;;;;;;;2.40;0.80;;;8.80;99.90;;;;;;5051198;28;20438;-46
2023/01/12 02:25:09;;;;;;;2.20;1.40;;;8.80;99.90;;;;;;5046816;28;20502;-47
2023/01/12 02:27:59;;;;;;;2.83;1.00;;;8.80;99.90;;;;;;5046912;28;20456;-46
2023/01/12 02:31:00;;;;;;;3.30;1.20;;;8.80;99.90;;;;;;5034852;28;21801;-46
2023/01/12 02:33:44;;;;;;;3.67;0.93;;;8.80;99.90;;;;;;5043162;28;20806;-45
2023/01/12 02:36:19;;;;;;;4.33;1.40;;;8.80;99.90;;;;;;5044838;28;21012;-46
2023/01/12 02:38:53;;;;;;;2.77;1.00;;;8.80;99.90;;;;;;5051747;28;20473;-46
2023/01/12 02:44:19;;;;;;;1.57;0.80;;;8.80;99.90;;;;;;5052773;28;20790;-47
2023/01/12 02:46:51;;;;;;;1.13;0.50;;;8.80;99.90;;;;;;5054774;28;20475;-46
2023/01/12 02:49:26;;;;;;;1.90;0.70;;;8.80;99.90;;;;;;5045577;28;20452;-51
2023/01/12 02:51:58;;;;;;;1.70;1.03;;;8.80;99.90;;;;;;5044079;28;20477;-46
2023/01/12 02:54:28;;;;;;;2.43;0.90;;;8.80;99.90;;;;;;5026541;28;20446;-46
2023/01/12 02:57:02;;;;;;;1.17;0.83;;;8.80;99.90;;;;;;5047905;28;20483;-46
2023/01/12 02:59:34;;;;;;;0.80;0.60;;;8.80;99.90;;;;;;5056721;28;20494;-46
2023/01/12 03:02:07;;;;;;;2.00;1.03;;;8.80;99.90;;;;;;5040119;28;20469;-45
2023/01/12 03:04:37;;;;;;;1.57;0.97;;;8.80;99.90;;;;;;5049012;28;20459;-46
2023/01/12 03:07:37;;;;;;;5.57;1.00;;;8.80;99.90;;;;;;5047412;28;20472;-47
2023/01/12 03:10:30;;;;;;;1.30;0.90;;;8.80;99.90;;;;;;5059881;28;20811;-46
2023/01/12 03:13:00;;;;;;;1.10;0.60;;;8.80;99.90;;;;;;5048905;28;20440;-47
2023/01/12 03:15:29;;;;;;;2.20;0.93;;;8.80;99.90;;;;;;5060635;28;20486;-46
2023/01/12 03:18:01;;;;;;;1.10;0.90;;;8.80;99.90;;;;;;5051803;28;20792;-46
2023/01/12 03:20:35;;;;;;;1.37;0.93;;;8.80;99.90;;;;;;5050938;28;20923;-47
2023/01/12 03:23:09;;;;;;;1.90;0.90;;;8.80;99.90;;;;;;5043844;28;20456;-46
2023/01/12 03:25:41;;;;;;;1.50;0.73;;;8.80;99.90;;;;;;5047533;28;20466;-46
2023/01/12 03:28:13;;;;;;;3.40;1.00;;;8.80;99.90;;;;;;5034916;28;20448;-47
2023/01/12 03:30:45;;;;;;;1.10;0.70;;;8.80;99.90;;;;;;5043523;28;20469;-46
2023/01/12 03:33:14;;;;;;;1.80;0.87;;;8.80;99.90;;;;;;5058378;28;20827;-44
2023/01/12 03:35:51;;;;;;;1.37;0.83;;;8.80;99.90;;;;;;5057891;28;20457;-47
2023/01/12 03:38:27;;;;;;;2.10;1.07;;;8.80;99.90;;;;;;5060395;28;20803;-47
2023/01/12 03:41:03;;;;;;;2.23;0.70;;;8.80;99.90;;;;;;5048126;28;20472;-47
2023/01/12 03:43:37;;;;;;;2.70;1.00;;;8.80;99.90;;;;;;5046891;28;20444;-45
2023/01/12 03:46:14;;;;;;;2.63;0.63;;;8.80;99.90;;;;;;5042569;28;20481;-47
2023/01/12 03:48:47;;;;;;;5.03;0.97;;;8.80;99.90;;;;;;5031971;28;20878;-46
2023/01/12 03:51:22;;;;;;;4.10;0.97;;;8.80;99.90;;;;;;5031380;28;20473;-45
2023/01/12 03:53:52;;;;;;;2.00;0.80;;;8.80;99.90;;;;;;5056147;28;20435;-46
2023/01/12 03:56:23;;;;;;;3.07;0.73;;;8.80;99.90;;;;;;5048792;28;20490;-45
2023/01/12 03:58:52;;;;;;;1.40;0.77;;;8.80;99.90;;;;;;5050625;28;20454;-46
2023/01/12 04:01:21;;;;;;;3.23;1.00;;;8.80;99.90;;;;;;5052026;28;20479;-46
2023/01/12 04:03:49;;;;;;;4.87;1.00;;;8.80;99.90;;;;;;5044418;28;20441;-46
2023/01/12 04:06:19;;;;;;;1.23;0.50;;;8.80;99.90;;;;;;5045475;28;20459;-46
2023/01/12 04:08:48;;;;;;;3.23;0.70;;;8.80;99.90;;;;;;5048961;28;20465;-46
2023/01/12 04:14:02;;;;;;;3.50;0.80;;;8.80;99.90;;;;;;5040757;28;20436;-46
2023/01/12 04:16:31;;;;;;;1.13;0.87;;;8.80;99.90;;;;;;5043581;28;20482;-46
2023/01/12 04:18:59;;;;;;;2.67;1.00;;;8.80;99.90;;;;;;5042426;28;20908;-47
2023/01/12 04:24:15;;;;;;;3.20;0.90;;;8.80;99.90;;;;;;5029795;28;20490;-46
2023/01/12 04:26:44;;;;;;;2.03;0.63;;;8.80;99.90;;;;;;5042062;28;20514;-47
2023/01/12 04:29:13;;;;;;;2.30;0.60;;;8.80;99.90;;;;;;5047391;28;20468;-46
2023/01/12 04:31:41;;;;;;;4.07;0.70;;;8.80;99.90;;;;;;5050258;28;20547;-46
2023/01/12 04:34:13;;;;;;;2.23;0.57;;;8.80;99.90;;;;;;5039552;28;20946;-46
2023/01/12 04:36:43;;;;;;;1.67;0.60;;;8.80;99.90;;;;;;5046070;28;20484;-46
2023/01/12 04:39:12;;;;;;;1.27;0.70;;;8.80;99.90;;;;;;5062003;28;20486;-44
2023/01/12 04:41:40;;;;;;;1.63;0.70;;;8.80;99.90;;;;;;5048572;28;20476;-45
2023/01/12 04:44:09;;;;;;;1.43;0.50;;;8.80;99.90;;;;;;5039297;28;20523;-46
2023/01/12 04:46:37;;;;;;;1.10;1.00;;;8.80;99.90;;;;;;5045322;28;20969;-46
2023/01/12 04:49:06;;;;;;;1.73;0.70;;;8.80;99.90;;;;;;5047589;28;20903;-46
2023/01/12 04:51:34;;;;;;;1.93;0.60;;;8.80;99.90;;;;;;5052481;28;20468;-46
2023/01/12 04:54:04;;;;;;;0.90;0.80;;;8.80;99.90;;;;;;5046468;28;20722;-46
2023/01/12 04:56:33;;;;;;;1.73;0.50;;;8.80;99.90;;;;;;5052723;28;20669;-46
2023/01/12 04:59:01;;;;;;;0.83;0.60;;;8.80;99.90;;;;;;5048435;28;20501;-46
2023/01/12 05:01:30;;;;;;;3.30;0.73;;;8.80;99.90;;;;;;5031537;28;20852;-47
2023/01/12 05:04:00;;;;;;;1.03;0.77;;;8.80;99.90;;;;;;5035468;28;20456;-46
2023/01/12 05:06:29;;;;;;;2.03;0.80;;;8.80;99.90;;;;;;5047311;28;20479;-45
2023/01/12 05:11:48;;;;;;;1.23;0.77;;;8.80;99.90;;;;;;5055094;28;20491;-45
2023/01/12 05:14:17;;;;;;;1.23;0.70;;;8.80;99.90;;;;;;5049941;28;20455;-46
2023/01/12 05:16:45;;;;;;;0.97;0.60;;;8.80;99.90;;;;;;5030916;28;20508;-44
2023/01/12 05:19:14;;;;;;;1.47;0.50;;;8.80;99.90;;;;;;5050670;28;20459;-46
2023/01/12 05:21:43;;;;;;;0.97;0.57;;;8.80;99.90;;;;;;5047130;28;20560;-46
2023/01/12 05:24:11;;;;;;;1.50;0.60;;;8.80;99.90;;;;;;5049517;28;20816;-46
2023/01/12 05:26:40;;;;;;;1.47;0.60;;;8.80;99.90;;;;;;5050317;28;20482;-46
2023/01/12 05:29:11;;;;;;;0.80;0.53;;;8.80;99.90;;;;;;5046892;28;20461;-47
2023/01/12 05:31:40;;;;;;;1.63;0.60;;;8.80;99.90;;;;;;5048065;28;20483;-46
2023/01/12 05:34:08;;;;;;;1.03;0.67;;;8.80;99.90;;;;;;5052172;28;20440;-46
2023/01/12 05:36:37;;;;;;;1.27;0.57;;;8.80;99.90;;;;;;5048212;28;20540;-46
2023/01/12 05:39:06;;;;;;;1.90;0.70;;;8.80;99.90;;;;;;5033003;28;20458;-47
2023/01/12 05:41:34;;;;;;;2.40;0.60;;;8.80;99.90;;;;;;5044379;28;20875;-45
2023/01/12 05:44:02;;;;;;;1.80;0.67;;;8.80;99.90;;;;;;5054973;28;20439;-46
2023/01/12 05:46:38;;;;;;;0.60;0.30;;;8.80;99.90;;;;;;5046331;28;20478;-46
2023/01/12 05:49:09;;;;;;;1.50;0.57;;;8.80;99.90;;;;;;5047042;28;20974;-46
2023/01/12 05:51:38;;;;;;;0.60;0.40;;;8.80;99.90;;;;;;5048606;28;20481;-46
2023/01/12 05:54:07;;;;;;;1.10;0.43;;;8.80;99.90;;;;;;5046107;28;20442;-47
2023/01/12 05:56:35;;;;;;;0.90;0.47;;;8.80;99.90;;;;;;5042634;28;20515;-46
2023/01/12 05:59:05;;;;;;;0.87;0.60;;;8.80;99.90;;;;;;5054658;28;20451;-46
2023/01/12 06:01:35;;;;;;;1.27;0.57;;;8.80;99.90;;;;;;5046319;28;20487;-46
2023/01/12 06:04:04;;;;;;;1.30;0.80;;;8.80;99.90;;;;;;5029523;28;20471;-47
2023/01/12 06:06:32;;;;;;;1.60;0.60;;;8.80;99.90;;;;;;5062462;28;20859;-45
2023/01/12 06:09:01;;;;;;;0.60;0.50;;;8.80;99.90;;;;;;5046921;28;20460;-45
2023/01/12 06:14:16;;;;;;;1.23;0.77;;;8.80;99.90;;;;;;5049787;28;20940;-46
2023/01/12 06:16:46;;;;;;;1.57;0.57;;;8.80;99.90;;;;;;5044384;28;20471;-45
2023/01/12 06:19:15;;;;;;;0.80;0.40;;;8.80;99.90;;;;;;5050168;28;20515;-44
2023/01/12 06:21:43;;;;;;;1.37;0.50;;;8.80;99.90;;;;;;5046172;28;20527;-46
2023/01/12 06:24:12;;;;;;;1.17;0.40;;;8.80;99.90;;;;;;5047894;28;20799;-45
2023/01/12 06:26:43;;;;;;;0.77;0.50;;;8.80;99.90;;;;;;5061574;28;20486;-46
2023/01/12 06:29:12;;;;;;;1.23;0.40;;;8.80;99.90;;;;;;5050990;28;20456;-44
2023/01/12 06:31:42;;;;;;;0.93;0.40;;;8.80;99.90;;;;;;5045910;28;20468;-46
2023/01/12 06:34:12;;;;;;;3.50;0.73;;;8.80;99.90;;;;;;5045563;28;20880;-44
2023/01/12 06:36:41;;;;;;;0.83;0.63;;;8.80;99.90;;;;;;5055131;28;20479;-46
2023/01/12 06:39:11;;;;;;;0.90;0.60;;;8.80;99.90;;;;;;5029843;28;20848;-46
2023/01/12 06:44:26;;;;;;;0.60;0.40;;;8.80;99.90;;;;;;5046479;28;21021;-46
2023/01/12 06:46:54;;;;;;;1.50;0.40;;;8.80;99.90;;;;;;5045770;28;20476;-47
2023/01/12 06:49:24;;;;;;;1.13;0.70;;;8.80;99.90;;;;;;5047107;28;20456;-46
2023/01/12 06:51:53;;;;;;;0.83;0.40;;;8.80;99.90;;;;;;5032212;28;20481;-46
2023/01/12 06:54:21;;;;;;;1.10;0.47;;;8.80;99.90;;;;;;5028643;28;20443;-46
2023/01/12 06:56:50;;;;;;;1.40;0.60;;;8.80;99.90;;;;;;5046018;28;20492;-46
2023/01/12 06:59:18;;;;;;;1.30;0.70;;;8.80;99.90;;;;;;5047309;28;20444;-47
2023/01/12 07:01:47;;;;;;;1.10;0.57;;;8.80;99.90;;;;;;5045709;28;20476;-46
2023/01/12 07:04:16;;;;;;;1.27;0.70;;;8.80;99.90;;;;;;5029608;28;20733;-46
2023/01/12 07:06:47;;;;;;;0.80;0.37;;;8.80;99.90;;;;;;5042651;28;20554;-45
2023/01/12 07:09:15;;;;;;;1.17;0.50;;;8.80;99.90;;;;;;5049322;28;20511;-46
2023/01/12 07:11:44;;;;;;;1.47;0.60;;;8.80;99.90;;;;;;5053126;28;21048;-46
2023/01/12 07:14:15;;;;;;;0.50;0.40;;;8.80;99.90;;;;;;5035065;28;20434;-45
2023/01/12 07:16:44;;;;;;;0.50;0.30;;;8.80;99.90;;;;;;5062693;28;20829;-46
2023/01/12 07:19:12;;;;;;;1.17;0.60;;;8.80;99.90;;;;;;5048338;28;20457;-45
2023/01/12 07:21:42;;;;;;;1.43;0.67;;;8.80;99.90;;;;;;5049839;28;21220;-47
2023/01/12 07:24:12;;;;;;;1.30;0.90;;;8.80;99.90;;;;;;5058475;28;20505;-45
2023/01/12 07:26:41;;;;;;;1.70;1.60;;;8.80;99.90;;;;;;5064499;28;20215;-45
2023/01/12 07:33:17;;;;;;;1.90;1.80;;;8.80;99.90;;;;;;5053962;28;20467;-46
2023/01/12 07:35:46;;;;;;;3.07;1.93;;;8.80;99.90;;;;;;5056947;28;21042;-46
2023/01/12 07:38:15;;;;;;;2.20;1.90;;;8.80;99.90;;;;;;5046662;28;20917;-46
2023/01/12 07:40:45;;;;;;;2.10;1.70;;;8.80;99.90;;;;;;5043443;28;20498;-45
2023/01/12 07:43:16;;;;;;;2.60;2.40;;;8.80;99.90;;;;;;5029596;28;20837;-46
2023/01/12 07:45:46;;;;;;;2.90;1.70;;;8.80;99.90;;;;;;5019281;28;20920;-45
2023/01/12 07:48:15;;;;;;;3.20;2.30;;;8.80;99.90;;;;;;5045372;28;20431;-46
2023/01/12 07:50:44;;;;;;;2.50;1.90;;;8.80;99.90;;;;;;5050736;28;20460;-45
2023/01/12 07:53:12;;;;;;;3.17;1.63;;;8.80;99.90;;;;;;5028969;28;20438;-45
2023/01/12 07:55:42;;;;;;;2.07;1.73;;;8.80;99.90;;;;;;5041356;28;20475;-45
2023/01/12 07:58:12;;;;;;;2.17;1.63;;;8.80;99.90;;;;;;5046628;28;20515;-46
2023/01/12 08:00:41;;;;;;;2.33;1.83;;;8.80;99.90;;;;;;5041810;28;20480;-46
2023/01/12 08:03:12;;;;;;;2.70;1.70;;;8.80;99.90;;;;;;5028136;28;20486;-46
2023/01/12 08:05:41;;;;;;;3.10;1.70;;;8.80;99.90;;;;;;5045840;28;20444;-46
2023/01/12 08:08:10;;;;;;;1.40;1.20;;;8.80;99.90;;;;;;5043636;28;20434;-46
2023/01/12 08:10:39;;;;;;;1.93;1.83;;;8.80;99.90;;;;;;5042630;28;20467;-47
2023/01/12 08:13:08;;;;;;;2.00;1.67;;;8.80;99.90;;;;;;5043002;28;20428;-45
2023/01/12 08:15:44;;;;;;;2.03;1.43;;;8.80;99.90;;;;;;5027602;28;20568;-46
2023/01/12 08:18:17;;;;;;;8.53;1.57;;;8.80;99.90;;;;;;5041410;28;20441;-44
2023/01/12 08:20:46;;;;;;;2.90;1.37;;;8.80;99.90;;;;;;5039957;28;20457;-44
2023/01/12 08:23:19;;;;;;;2.30;1.60;;;8.80;99.90;;;;;;5046448;28;20805;-44
2023/01/12 08:25:54;;;;;;;2.60;1.50;;;8.80;99.90;;;;;;5038155;28;20450;-44
2023/01/12 08:28:28;;;;;;;2.50;2.10;;;8.80;99.90;;;;;;5045153;28;20439;-46
2023/01/12 08:30:58;;;;;;;1.30;1.20;;;8.80;99.90;;;;;;5045532;28;20444;-44
2023/01/12 08:33:27;;;;;;;1.87;1.47;;;8.80;99.90;;;;;;5042744;28;20428;-46
2023/01/12 08:35:56;;;;;;;3.10;1.80;;;8.80;99.90;;;;;;5042118;28;20443;-46
2023/01/12 08:38:25;;;;;;;1.87;1.50;;;8.80;99.90;;;;;;5044831;28;20443;-46
2023/01/12 08:46:27;;;;;;;1.53;1.43;;;8.80;99.90;;;;;;5026947;28;20469;-46
2023/01/12 08:48:56;;;;;;;1.40;1.30;;;8.80;99.90;;;;;;5041701;28;20974;-46
2023/01/12 08:51:25;;;;;;;1.47;1.27;;;8.80;99.90;;;;;;5044092;28;20849;-45
2023/01/12 08:53:54;;;;;;;1.37;1.27;;;8.80;99.90;;;;;;5044382;28;20455;-46
2023/01/12 08:56:23;;;;;;;2.40;0.90;;;8.80;99.90;;;;;;5045130;28;20498;-45
2023/01/12 08:58:54;;;;;;;1.10;1.00;;;8.80;99.90;;;;;;5043037;28;20827;-47
2023/01/12 09:01:23;;;;;;;1.53;1.20;;;8.80;99.90;;;;;;5024261;28;20486;-45
2023/01/12 09:03:55;;;;;;;1.83;1.23;;;8.80;99.90;;;;;;5041436;28;20843;-45
2023/01/12 09:06:26;;;;;;;0.80;0.80;;;8.80;99.90;;;;;;5059143;28;20444;-44
2023/01/12 09:08:56;;;;;;;1.87;0.90;;;8.80;99.90;;;;;;5028440;28;20978;-46
2023/01/12 09:11:25;;;;;;;1.43;0.93;;;8.80;99.90;;;;;;5043287;28;20470;-45
2023/01/12 09:13:55;;;;;;;1.17;1.07;;;8.80;99.90;;;;;;5047593;28;20431;-46
2023/01/12 09:16:24;;;;;;;1.40;1.00;;;8.80;99.90;;;;;;5045057;28;20472;-45
2023/01/12 09:18:55;;;;;;;1.50;1.10;;;8.80;99.90;;;;;;5049736;28;20865;-45
2023/01/12 09:21:25;;;;;;;1.87;1.17;;;8.80;99.90;;;;;;5045544;28;20455;-45
2023/01/12 09:23:54;;;;;;;1.70;1.20;;;8.80;99.90;;;;;;5043443;28;20459;-46
2023/01/12 09:26:27;;;;;;;1.10;1.07;;;8.80;99.90;;;;;;5031311;28;20427;-44
2023/01/12 09:28:57;;;;;;;1.30;0.80;;;8.80;99.90;;;;;;5048325;28;20452;-44
2023/01/12 09:31:26;;;;;;;1.70;0.93;;;8.80;99.90;;;;;;5044075;28;20987;-46
2023/01/12 09:33:57;;;;;;;1.23;0.87;;;8.80;99.90;;;;;;5046103;28;20447;-46
2023/01/12 09:36:27;;;;;;;0.83;0.60;;;8.80;99.90;;;;;;5064490;28;20451;-46
2023/01/12 09:38:56;;;;;;;1.03;0.93;;;8.80;99.90;;;;;;5044567;28;20488;-45
2023/01/12 09:47:09;;;;;;;3.13;0.70;;;8.80;99.90;;;;;;5044098;28;20576;-46
2023/01/12 09:49:43;;;;;;;0.70;0.70;;;8.80;99.90;;;;;;5048106;28;20995;-46
2023/01/12 09:52:19;;;;;;;1.10;1.00;;;8.80;99.90;;;;;;5044833;28;20986;-45
2023/01/12 09:54:51;;;;;;;1.43;0.97;;;8.80;99.90;;;;;;5022469;28;20447;-46
2023/01/12 09:58:01;;;;;;;0.60;0.60;;;8.80;99.90;;;;;;5045919;28;20477;-45
2023/01/12 10:00:29;;;;;;;1.63;0.80;;;8.80;99.90;;;;;;5043873;28;20483;-47
2023/01/12 10:03:11;;;;;;;0.80;0.70;;;8.80;99.90;;;;;;5044165;28;20464;-46
2023/01/12 10:05:46;;;;;;;0.90;0.80;;;8.80;99.90;;;;;;5046399;28;20788;-44
2023/01/12 10:08:23;;;;;;;0.97;0.70;;;8.80;99.90;;;;;;5048575;28;20432;-45
2023/01/12 10:11:07;;;;;;;0.87;0.60;;;8.80;99.90;;;;;;5058861;28;20447;-46
2023/01/12 10:13:55;;;;;;;0.60;0.60;;;8.80;99.90;;;;;;5045266;28;20510;-45
2023/01/12 10:16:31;;;;;;;0.60;0.60;;;8.80;99.90;;;;;;5043835;28;20983;-46
2023/01/12 10:19:05;;;;;;;1.27;0.77;;;8.80;99.90;;;;;;5044317;28;20461;-45
2023/01/12 10:21:37;;;;;;;1.03;0.70;;;8.80;99.90;;;;;;5029585;28;20468;-46
2023/01/12 10:24:11;;;;;;;0.97;0.87;;;8.80;99.90;;;;;;5047775;28;20458;-46
2023/01/12 10:26:42;;;;;;;2.90;0.70;;;8.80;99.90;;;;;;5056750;28;20502;-45
2023/01/12 10:29:12;;;;;;;1.10;0.63;;;8.80;99.90;;;;;;5030367;28;20559;-47
2023/01/12 10:31:40;;;;;;;1.43;0.80;;;8.80;99.90;;;;;;5043536;28;20896;-46
2023/01/12 10:34:10;;;;;;;1.80;0.70;;;8.80;99.90;;;;;;5046756;28;20446;-46
2023/01/12 10:36:45;;;;;;;0.63;0.63;;;8.80;99.90;;;;;;5046626;28;20455;-44
2023/01/12 10:39:29;;;;;;;0.90;0.50;;;8.80;99.90;;;;;;5045493;28;20466;-46
2023/01/12 10:45:17;;;;;;;0.60;0.50;;;8.80;99.90;;;;;;4963169;28;20525;-44
2023/01/12 10:47:46;;;;;;;1.13;0.83;;;8.80;99.90;;;;;;5038703;28;20954;-46
2023/01/12 10:50:25;;;;;;;0.83;0.80;;;8.80;99.90;;;;;;5045273;28;20974;-47
2023/01/12 10:53:00;;;;;;;1.53;0.50;;;8.80;99.90;;;;;;5043483;28;20443;-45
2023/01/12 10:55:32;;;;;;;0.77;0.50;;;8.90;99.90;;;;;;5044313;28;20467;-44
2023/01/12 10:58:01;;;;;;;1.00;0.50;;;8.90;99.90;;;;;;5043109;28;20440;-46
2023/01/12 11:00:30;;;;;;;1.67;0.90;;;8.90;99.90;;;;;;5043835;28;20506;-44
2023/01/12 11:02:59;;;;;;;0.90;0.67;;;8.90;99.90;;;;;;5043124;28;21052;-44
2023/01/12 11:05:34;;;;;;;0.60;0.50;;;8.90;99.90;;;;;;5045942;28;20495;-44
2023/01/12 11:08:20;;;;;;;2.33;0.87;;;8.90;99.90;;;;;;5025807;28;20449;-44
2023/01/12 11:10:52;;;;;;;0.90;0.80;;;8.90;99.90;;;;;;5043169;28;20439;-46
2023/01/12 11:13:26;;;;;;;0.80;0.60;;;8.90;99.90;;;;;;5046176;28;20424;-46
2023/01/12 11:16:01;;;;;;;0.67;0.63;;;8.90;99.90;;;;;;5045205;28;20556;-47
2023/01/12 11:18:38;;;;;;;1.77;0.97;;;8.90;99.90;;;;;;5029364;28;20538;-46
2023/01/12 11:21:09;;;;;;;1.40;0.77;;;8.90;99.90;;;;;;5047580;28;20475;-46
2023/01/12 11:23:44;;;;;;;1.23;0.97;;;8.90;99.90;;;;;;5031386;28;20839;-45
2023/01/12 11:26:20;;;;;;;2.20;0.70;;;8.90;99.90;;;;;;5056107;28;20440;-46
2023/01/12 11:28:53;;;;;;;1.00;0.50;;;8.90;99.90;;;;;;5053681;28;20847;-47
2023/01/12 11:31:25;;;;;;;0.93;0.90;;;9.00;99.90;;;;;;5030761;28;20468;-46
2023/01/12 11:33:58;;;;;;;0.67;0.57;;;9.00;99.90;;;;;;5046761;28;20437;-45
2023/01/12 11:36:30;;;;;;;1.13;0.67;;;9.00;99.90;;;;;;5048289;28;20459;-46
2023/01/12 11:39:04;;;;;;;1.00;0.60;;;9.10;99.90;;;;;;5046116;28;20483;-46
2023/01/12 11:43:47;;;;;;;1.80;0.93;;;9.10;99.90;;;;;;5029136;28;20465;-44
2023/01/12 11:44:38;;;;;;;1.53;0.67;;;9.10;99.90;;;;;;5045392;28;20515;-46
2023/01/12 11:47:11;;;;;;;2.20;0.73;;;9.10;99.90;;;;;;5039446;28;20467;-47
2023/01/12 11:49:48;;;;;;;1.37;1.17;;;9.20;99.90;;;;;;5050170;28;20809;-44
2023/01/12 11:52:17;;;;;;;1.00;0.60;;;9.20;99.90;;;;;;5045730;28;20475;-45
2023/01/12 11:54:47;;;;;;;1.63;0.60;;;9.20;99.90;;;;;;5041679;28;20444;-45
2023/01/12 11:57:40;;;;;;;0.80;0.53;;;9.20;99.90;;;;;;5046372;28;20655;-44
2023/01/12 12:00:34;;;;;;;0.70;0.50;;;9.20;99.90;;;;;;5028857;28;20464;-46
2023/01/12 12:03:19;;;;;;;0.90;0.80;;;9.20;99.90;;;;;;5037766;28;20474;-46
2023/01/12 12:05:52;;;;;;;1.53;0.60;;;9.20;99.90;;;;;;5057167;28;20968;-46
2023/01/12 12:08:31;;;;;;;1.40;0.70;;;9.30;99.90;;;;;;5044087;28;20447;-45
2023/01/12 12:11:11;;;;;;;1.70;0.67;;;9.30;99.90;;;;;;5040421;28;20497;-45
2023/01/12 12:13:50;;;;;;;0.83;0.80;;;9.20;99.90;;;;;;5046274;28;20438;-45
2023/01/12 12:16:27;;;;;;;0.63;0.60;;;9.30;99.90;;;;;;5042983;28;20521;-44
2023/01/12 12:19:14;;;;;;;0.80;0.50;;;9.30;99.90;;;;;;5041338;28;20484;-46
2023/01/12 12:21:52;;;;;;;0.50;0.40;;;9.30;99.90;;;;;;5043051;28;20510;-47
2023/01/12 12:24:50;;;;;;;0.60;0.60;;;9.30;99.90;;;;;;5047722;28;20498;-45
2023/01/12 12:27:33;;;;;;;1.43;0.70;;;9.30;99.90;;;;;;5047108;28;20468;-46
2023/01/12 12:30:26;;;;;;;0.60;0.40;;;9.30;99.90;;;;;;5045512;28;20518;-47
2023/01/12 12:33:06;;;;;;;0.93;0.50;;;9.30;99.90;;;;;;5042567;28;20478;-47
2023/01/12 12:35:47;;;;;;;1.33;0.40;;;9.30;99.90;;;;;;5044933;28;20607;-46
2023/01/12 12:38:32;;;;;;;1.10;0.73;;;9.30;99.90;;;;;;5029519;28;20810;-45
2023/01/12 12:47:40;;;;;;;3.20;0.77;;;9.30;99.90;;;;;;5041007;28;20500;-46
2023/01/12 12:50:17;;;;;;;0.53;0.40;;;9.30;99.90;;;;;;5047749;28;20833;-46
2023/01/12 12:52:50;;;;;;;0.50;0.40;;;9.30;99.90;;;;;;5045423;28;20554;-46
2023/01/12 12:55:19;;;;;;;0.90;0.60;;;9.30;99.90;;;;;;5048658;28;20447;-45
2023/01/12 12:58:01;;;;;;;0.50;0.50;;;9.30;99.90;;;;;;5053836;28;20438;-46
2023/01/12 13:00:39;;;;;;;0.50;0.50;;;9.30;99.90;;;;;;5041238;28;20574;-46
2023/01/12 13:03:08;;;;;;;0.57;0.53;;;9.30;99.90;;;;;;5039167;28;20460;-44
2023/01/12 13:05:42;;;;;;;1.13;0.43;;;9.30;99.90;;;;;;5048816;28;20466;-46
2023/01/12 13:08:20;;;;;;;2.43;0.80;;;9.30;99.90;;;;;;5049828;28;20444;-45
2023/01/12 13:10:52;;;;;;;2.60;0.80;;;9.30;99.90;;;;;;5038852;28;20471;-45
2023/01/12 13:13:27;;;;;;;0.50;0.40;;;9.30;99.90;;;;;;5047566;28;20449;-47
2023/01/12 13:16:41;;;;;;;0.90;0.60;;;9.30;99.90;;;;;;5052017;28;20872;-46
2023/01/12 13:19:30;;;;;;;0.70;0.50;;;9.30;99.90;;;;;;5046782;28;20764;-44
2023/01/12 13:22:16;;;;;;;0.63;0.50;;;9.30;99.90;;;;;;5047611;28;20479;-46
2023/01/12 13:24:45;;;;;;;0.63;0.50;;;9.30;99.90;;;;;;5042778;28;20875;-46
2023/01/12 13:27:47;;;;;;;0.50;0.43;;;9.30;99.90;;;;;;5051135;28;20473;-44
2023/01/12 13:30:23;;;;;;;0.80;0.60;;;9.30;99.90;;;;;;5059826;28;20485;-46
2023/01/12 13:32:59;;;;;;;0.70;0.40;;;9.30;99.90;;;;;;5052486;28;20953;-44
2023/01/12 13:35:57;;;;;;;0.50;0.40;;;9.30;99.90;;;;;;5049264;28;20441;-46
2023/01/12 13:38:42;;;;;;;0.70;0.43;;;9.30;99.90;;;;;;5051471;28;20448;-46
2023/01/12 13:44:06;;;;;;;1.10;0.67;;;9.30;99.90;;;;;;5023411;28;20447;-46
2023/01/12 13:46:40;;;;;;;1.03;0.47;;;9.30;99.90;;;;;;5042785;28;20465;-46
2023/01/12 13:49:26;;;;;;;0.67;0.50;;;9.30;99.90;;;;;;5047242;28;20976;-46
2023/01/12 13:52:00;;;;;;;0.50;0.50;;;9.30;99.90;;;;;;5039618;28;20481;-46
2023/01/12 13:54:32;;;;;;;0.70;0.43;;;9.30;99.90;;;;;;5057940;28;20439;-45
2023/01/12 13:57:03;;;;;;;0.90;0.70;;;9.30;99.90;;;;;;5047770;28;20483;-46
2023/01/12 13:59:33;;;;;;;0.77;0.57;;;9.30;99.90;;;;;;5046398;28;20552;-45
2023/01/12 14:02:03;;;;;;;0.50;0.40;;;9.30;99.90;;;;;;5044902;28;20505;-47
2023/01/12 14:04:53;;;;;;;0.70;0.60;;;9.30;99.90;;;;;;5046215;28;20470;-47
2023/01/12 14:07:36;;;;;;;0.70;0.63;;;9.30;99.90;;;;;;5048873;28;20467;-45
2023/01/12 14:10:20;;;;;;;0.60;0.40;;;9.30;99.90;;;;;;5048749;28;20529;-47
2023/01/12 14:13:21;;;;;;;0.80;0.40;;;9.30;99.90;;;;;;5048245;28;20474;-46
2023/01/12 14:18:43;;;;;;;0.83;0.50;;;9.30;99.90;;;;;;5049124;28;20440;-45
2023/01/12 14:21:24;;;;;;;0.60;0.47;;;9.30;99.90;;;;;;5054739;28;20430;-45
2023/01/12 14:23:54;;;;;;;0.87;0.43;;;9.30;99.90;;;;;;5049805;28;20442;-45
2023/01/12 14:26:26;;;;;;;0.60;0.30;;;9.30;99.90;;;;;;5045226;28;20500;-46